createdAt,value
2023-02-08T00:00:01.614Z,46.71
2023-02-08T00:02:03.285Z,46.33
2023-02-08T00:04:04.865Z,46.64
2023-02-08T00:06:09.760Z,46.95
2023-02-08T00:08:11.354Z,47.24
2023-02-08T00:10:13.189Z,46.35
2023-02-08T00:12:14.768Z,46.24
2023-02-08T00:14:16.369Z,47.37
2023-02-08T00:16:18.869Z,46.39
2023-02-08T00:18:21.460Z,46.48
2023-02-08T00:20:23.250Z,46.42
2023-02-08T00:22:24.788Z,46.83
2023-02-08T00:24:26.331Z,46.47
2023-02-08T00:26:28.025Z,47.13
2023-02-08T00:28:29.653Z,47.28
2023-02-08T00:30:31.776Z,46.65
2023-02-08T00:32:35.836Z,47.19
2023-02-08T00:34:38.877Z,46.83
2023-02-08T00:36:40.567Z,47.13
2023-02-08T00:38:43.608Z,47.34
2023-02-08T00:40:45.470Z,47.32
2023-02-08T00:42:48.442Z,46.64
2023-02-08T00:44:50.102Z,46.82
2023-02-08T00:46:51.871Z,47.19
2023-02-08T00:48:54.376Z,46.80
2023-02-08T00:51:01.237Z,47.43
2023-02-08T00:53:05.961Z,47.47
2023-02-08T00:55:08.911Z,46.58
2023-02-08T00:57:10.801Z,46.95
2023-02-08T00:59:12.835Z,47.25
2023-02-08T01:01:15.288Z,47.19
2023-02-08T01:03:21.796Z,46.94
2023-02-08T01:05:26.166Z,46.91
2023-02-08T01:07:27.821Z,46.67
2023-02-08T01:09:31.830Z,46.84
2023-02-08T01:11:33.503Z,47.33
2023-02-08T01:13:36.320Z,47.32
2023-02-08T01:15:38.212Z,47.26
2023-02-08T01:17:39.779Z,46.90
2023-02-08T01:19:42.619Z,46.71
2023-02-08T01:21:44.740Z,47.50
2023-02-08T01:23:46.870Z,47.39
2023-02-08T01:25:48.437Z,47.04
2023-02-08T01:27:50.095Z,46.82
2023-02-08T01:29:55.656Z,47.15
2023-02-08T01:31:57.378Z,47.27
2023-02-08T01:33:59.554Z,47.43
2023-02-08T01:36:02.085Z,47.12
2023-02-08T01:38:06.801Z,47.33
2023-02-08T01:40:08.899Z,47.32
2023-02-08T01:42:17.107Z,47.46
2023-02-08T01:44:18.917Z,47.28
2023-02-08T01:46:21.479Z,47.23
2023-02-08T01:48:29.300Z,46.80
2023-02-08T01:50:39.806Z,46.93
2023-02-08T01:52:43.576Z,47.32
2023-02-08T01:55:01.891Z,46.69
2023-02-08T01:57:04.060Z,46.78
2023-02-08T01:59:10.956Z,47.32
2023-02-08T02:01:14.004Z,47.63
2023-02-08T02:03:24.168Z,47.32
2023-02-08T02:05:32.451Z,47.42
2023-02-08T02:07:34.323Z,47.35
2023-02-08T02:09:59.813Z,47.15
2023-02-08T02:12:05.178Z,47.22
2023-02-08T02:14:07.935Z,46.87
2023-02-08T02:16:09.726Z,47.22
2023-02-08T02:18:14.005Z,47.00
2023-02-08T02:20:33.835Z,47.14
2023-02-08T02:23:08.811Z,47.46
2023-02-08T02:25:20.403Z,47.31
2023-02-08T02:27:40.046Z,47.41
2023-02-08T02:30:19.777Z,47.56
2023-02-08T02:32:40.124Z,47.26
2023-02-08T02:35:06.597Z,47.71
2023-02-08T02:37:43.590Z,47.28
2023-02-08T02:40:15.765Z,47.06
2023-02-08T02:42:50.247Z,46.88
2023-02-08T02:45:03.305Z,47.08
2023-02-08T02:47:26.606Z,47.08
2023-02-08T02:49:43.665Z,47.70
2023-02-08T02:51:57.153Z,47.14
2023-02-08T02:54:06.843Z,47.11
2023-02-08T02:56:20.042Z,47.51
2023-02-08T02:58:24.722Z,47.11
2023-02-08T03:00:28.685Z,47.43
2023-02-08T03:02:30.258Z,47.46
2023-02-08T03:04:34.680Z,47.40
2023-02-08T03:07:03.253Z,47.60
2023-02-08T03:09:35.178Z,47.23
2023-02-08T03:11:38.056Z,47.56
2023-02-08T03:14:04.835Z,47.02
2023-02-08T03:16:33.090Z,47.45
2023-02-08T03:18:53.415Z,47.04
2023-02-08T03:21:09.258Z,47.35
2023-02-08T03:23:19.537Z,47.11
2023-02-08T03:25:46.244Z,47.16
2023-02-08T03:28:17.340Z,47.73
2023-02-08T03:30:27.637Z,47.66
2023-02-08T03:32:43.159Z,47.10
2023-02-08T03:35:01.523Z,47.70
2023-02-08T03:37:13.682Z,47.25
2023-02-08T03:39:21.632Z,47.65
2023-02-08T03:41:30.280Z,47.19
2023-02-08T03:43:43.287Z,47.51
2023-02-08T03:45:54.773Z,47.76
2023-02-08T03:48:00.181Z,47.48
2023-02-08T03:50:06.491Z,47.16
2023-02-08T03:52:10.433Z,47.75
2023-02-08T03:54:17.693Z,47.30
2023-02-08T03:56:36.322Z,47.40
2023-02-08T03:58:46.927Z,47.31
2023-02-08T04:01:11.649Z,47.50
2023-02-08T04:03:24.631Z,47.52
2023-02-08T04:05:26.435Z,47.47
2023-02-08T04:07:27.984Z,47.36
2023-02-08T04:09:29.585Z,47.29
2023-02-08T04:11:31.333Z,47.74
2023-02-08T04:13:32.898Z,47.46
2023-02-08T04:15:34.785Z,47.76
2023-02-08T04:17:36.387Z,47.42
2023-02-08T04:19:40.956Z,47.30
2023-02-08T04:21:43.268Z,47.88
2023-02-08T04:23:45.112Z,47.73
2023-02-08T04:25:46.757Z,47.63
2023-02-08T04:27:48.419Z,47.49
2023-02-08T04:29:52.959Z,47.26
2023-02-08T04:31:54.664Z,47.57
2023-02-08T04:33:56.125Z,47.97
2023-02-08T04:35:58.194Z,47.58
2023-02-08T04:37:59.726Z,47.53
2023-02-08T04:40:04.102Z,47.85
2023-02-08T04:42:05.678Z,47.44
2023-02-08T04:44:07.162Z,47.77
2023-02-08T04:46:08.827Z,47.79
2023-02-08T04:48:11.893Z,47.86
2023-02-08T04:50:15.104Z,47.65
2023-02-08T04:52:16.718Z,47.97
2023-02-08T04:54:21.059Z,47.70
2023-02-08T04:56:23.099Z,48.06
2023-02-08T04:58:24.638Z,47.61
2023-02-08T05:00:26.418Z,48.00
2023-02-08T05:02:28.651Z,47.87
2023-02-08T05:04:31.153Z,47.93
2023-02-08T05:06:33.394Z,48.06
2023-02-08T05:08:37.756Z,47.65
2023-02-08T05:10:44.772Z,48.11
2023-02-08T05:12:46.429Z,47.88
2023-02-08T05:14:50.053Z,48.08
2023-02-08T05:16:53.073Z,48.03
2023-02-08T05:18:58.049Z,47.81
2023-02-08T05:21:01.211Z,48.21
2023-02-08T05:23:02.797Z,47.85
2023-02-08T05:25:04.995Z,47.85
2023-02-08T05:27:06.474Z,48.12
2023-02-08T05:29:08.114Z,47.95
2023-02-08T05:31:20.030Z,48.00
2023-02-08T05:33:21.730Z,47.77
2023-02-08T05:35:23.420Z,48.15
2023-02-08T05:37:25.416Z,47.94
2023-02-08T05:39:29.538Z,47.66
2023-02-08T05:41:31.144Z,47.72
2023-02-08T05:43:32.809Z,47.77
2023-02-08T05:45:34.436Z,47.82
2023-02-08T05:47:36.748Z,47.90
2023-02-08T05:49:41.052Z,47.95
2023-02-08T05:51:42.860Z,48.09
2023-02-08T05:53:45.407Z,48.10
2023-02-08T05:55:48.587Z,47.61
2023-02-08T05:57:50.192Z,47.76
2023-02-08T05:59:53.730Z,47.98
2023-02-08T06:01:55.392Z,48.04
2023-02-08T06:03:59.655Z,47.94
2023-02-08T06:06:01.723Z,47.61
2023-02-08T06:08:05.214Z,48.03
2023-02-08T06:10:10.065Z,47.70
2023-02-08T06:12:12.782Z,47.73
2023-02-08T06:14:14.606Z,47.63
2023-02-08T06:16:19.570Z,47.93
2023-02-08T06:18:21.615Z,47.81
2023-02-08T06:20:23.628Z,47.68
2023-02-08T06:22:28.253Z,47.47
2023-02-08T06:24:29.965Z,47.60
2023-02-08T06:26:31.650Z,48.01
2023-02-08T06:28:33.337Z,47.94
2023-02-08T06:30:35.098Z,47.87
2023-02-08T06:32:36.954Z,48.07
2023-02-08T06:34:38.493Z,47.91
2023-02-08T06:36:44.366Z,47.95
2023-02-08T06:38:46.007Z,48.28
2023-02-08T06:40:48.554Z,47.95
2023-02-08T06:42:50.733Z,48.02
2023-02-08T06:44:55.968Z,48.38
2023-02-08T06:46:57.780Z,48.14
2023-02-08T06:49:00.438Z,47.91
2023-02-08T06:51:02.437Z,47.85
2023-02-08T06:53:10.046Z,48.03
2023-02-08T06:55:14.489Z,48.25
2023-02-08T06:57:16.382Z,48.26
2023-02-08T06:59:20.291Z,48.09
2023-02-08T07:01:23.260Z,48.18
2023-02-08T07:03:24.826Z,48.16
2023-02-08T07:05:27.263Z,48.46
2023-02-08T07:07:28.983Z,48.25
2023-02-08T07:09:30.523Z,48.21
2023-02-08T07:11:32.183Z,48.03
2023-02-08T07:13:33.919Z,48.56
2023-02-08T07:15:41.419Z,48.55
2023-02-08T07:17:48.925Z,48.34
2023-02-08T07:19:50.956Z,48.18
2023-02-08T07:21:52.755Z,48.38
2023-02-08T07:23:55.745Z,48.43
2023-02-08T07:25:59.344Z,48.30
2023-02-08T07:28:03.335Z,48.30
2023-02-08T07:30:05.758Z,48.46
2023-02-08T07:32:08.393Z,48.71
2023-02-08T07:34:10.011Z,48.84
2023-02-08T07:36:12.336Z,48.77
2023-02-08T07:38:20.552Z,48.52
2023-02-08T07:40:22.366Z,48.73
2023-02-08T07:42:26.201Z,49.02
2023-02-08T07:44:39.993Z,49.27
2023-02-08T07:46:41.707Z,48.97
2023-02-08T07:48:46.637Z,49.09
2023-02-08T07:50:48.174Z,49.23
2023-02-08T07:52:49.769Z,49.25
2023-02-08T07:54:51.640Z,49.24
2023-02-08T07:57:00.526Z,49.22
2023-02-08T07:59:03.384Z,48.92
2023-02-08T08:01:21.071Z,49.34
2023-02-08T08:03:23.443Z,49.58
2023-02-08T08:05:32.654Z,49.41
2023-02-08T08:07:34.295Z,49.31
2023-02-08T08:09:35.921Z,49.08
2023-02-08T08:11:37.496Z,49.39
2023-02-08T08:13:39.020Z,49.23
2023-02-08T08:15:41.456Z,49.58
2023-02-08T08:17:43.523Z,49.73
2023-02-08T08:19:45.417Z,49.03
2023-02-08T08:21:47.129Z,49.33
2023-02-08T08:23:49.249Z,49.72
2023-02-08T08:25:50.825Z,49.50
2023-02-08T08:27:53.371Z,49.60
2023-02-08T08:29:55.093Z,49.77
2023-02-08T08:31:56.782Z,49.71
2023-02-08T08:33:58.584Z,49.85
2023-02-08T08:36:00.177Z,49.75
2023-02-08T08:38:01.835Z,49.98
2023-02-08T08:40:06.328Z,50.12
2023-02-08T08:42:07.964Z,50.00
2023-02-08T08:44:09.933Z,50.30
2023-02-08T08:46:11.759Z,50.54
2023-02-08T08:48:13.445Z,50.42
2023-02-08T08:50:15.320Z,49.86
2023-02-08T08:52:17.559Z,50.21
2023-02-08T08:54:22.637Z,50.57
2023-02-08T08:56:27.043Z,50.82
2023-02-08T08:58:32.060Z,50.69
2023-02-08T09:00:33.825Z,50.72
2023-02-08T09:02:38.423Z,50.71
2023-02-08T09:04:43.032Z,50.44
2023-02-08T09:06:44.597Z,50.99
2023-02-08T09:08:46.092Z,50.95
2023-02-08T09:10:47.787Z,50.46
2023-02-08T09:12:53.027Z,50.79
2023-02-08T09:14:57.896Z,50.98
2023-02-08T09:16:59.793Z,50.99
2023-02-08T09:19:02.599Z,51.13
2023-02-08T09:21:09.300Z,51.05
2023-02-08T09:23:20.166Z,50.54
2023-02-08T09:25:22.975Z,50.39
2023-02-08T09:27:25.815Z,50.54
2023-02-08T09:29:30.181Z,50.46
2023-02-08T09:31:39.672Z,50.39
2023-02-08T09:33:46.637Z,50.69
2023-02-08T09:35:49.687Z,50.52
2023-02-08T09:37:55.390Z,50.28
2023-02-08T09:40:00.077Z,50.28
2023-02-08T09:42:12.943Z,51.07
2023-02-08T09:44:51.915Z,50.81
2023-02-08T09:47:11.814Z,50.60
2023-02-08T09:49:21.673Z,50.28
2023-02-08T09:51:32.261Z,50.38
2023-02-08T09:53:40.339Z,50.44
2023-02-08T09:55:48.525Z,50.67
2023-02-08T09:57:53.537Z,50.68
2023-02-08T10:00:14.976Z,50.64
2023-02-08T10:02:29.389Z,50.66
2023-02-08T10:04:44.522Z,50.70
2023-02-08T10:06:50.152Z,50.50
2023-02-08T10:08:55.320Z,50.18
2023-02-08T10:11:24.688Z,50.73
2023-02-08T10:13:41.038Z,50.47
2023-02-08T10:16:01.690Z,50.74
2023-02-08T10:18:35.833Z,50.67
2023-02-08T10:20:53.405Z,50.74
2023-02-08T10:22:57.624Z,50.93
2023-02-08T10:25:23.166Z,50.71
2023-02-08T10:27:49.360Z,50.64
2023-02-08T10:30:15.409Z,50.66
2023-02-08T10:32:38.647Z,50.50
2023-02-08T10:34:46.011Z,50.76
2023-02-08T10:36:50.706Z,50.68
2023-02-08T10:38:57.767Z,50.34
2023-02-08T10:41:02.791Z,50.86
2023-02-08T10:43:10.717Z,50.79
2023-02-08T10:45:27.770Z,51.56
2023-02-08T10:47:36.149Z,51.40
2023-02-08T10:50:09.462Z,52.19
2023-02-08T10:52:11.518Z,52.81
2023-02-08T10:54:14.614Z,53.09
2023-02-08T10:56:32.207Z,54.20
2023-02-08T10:58:33.938Z,53.79
2023-02-08T11:00:39.508Z,54.12
2023-02-08T11:02:42.175Z,54.06
2023-02-08T11:04:59.386Z,54.06
2023-02-08T11:07:20.229Z,54.30
2023-02-08T11:09:27.765Z,53.58
2023-02-08T11:11:39.238Z,53.48
2023-02-08T11:13:48.103Z,53.11
2023-02-08T11:15:52.817Z,52.79
2023-02-08T11:18:03.601Z,52.73
2023-02-08T11:20:06.572Z,52.30
2023-02-08T11:22:17.815Z,51.83
2023-02-08T11:24:28.194Z,51.33
2023-02-08T11:26:38.181Z,50.72
2023-02-08T11:28:39.770Z,50.46
2023-02-08T11:30:41.441Z,50.02
2023-02-08T11:32:48.838Z,49.63
2023-02-08T11:35:12.697Z,48.86
2023-02-08T11:37:26.624Z,48.69
2023-02-08T11:39:41.505Z,47.86
2023-02-08T11:41:46.325Z,48.09
2023-02-08T11:44:07.840Z,46.96
2023-02-08T11:46:10.880Z,47.12
2023-02-08T11:48:33.083Z,46.30
2023-02-08T11:50:38.015Z,46.25
2023-02-08T11:52:43.157Z,46.27
2023-02-08T11:54:44.680Z,46.00
2023-02-08T11:57:01.987Z,45.17
2023-02-08T11:59:21.284Z,45.15
2023-02-08T12:01:27.288Z,45.16
2023-02-08T12:03:37.415Z,44.86
2023-02-08T12:05:49.094Z,44.30
2023-02-08T12:07:53.749Z,44.97
2023-02-08T12:10:10.110Z,43.55
2023-02-08T12:12:31.563Z,44.08
2023-02-08T12:15:01.592Z,42.40
2023-02-08T12:17:24.485Z,42.80
2023-02-08T12:19:56.865Z,42.49
2023-02-08T12:22:13.237Z,41.80
2023-02-08T12:24:29.437Z,41.53
2023-02-08T12:26:44.349Z,42.23
2023-02-08T12:29:20.670Z,42.38
2023-02-08T12:31:42.512Z,42.32
2023-02-08T12:34:16.537Z,42.25
2023-02-08T12:36:32.804Z,42.25
2023-02-08T12:39:24.666Z,42.89
2023-02-08T12:41:37.962Z,42.78
2023-02-08T12:44:02.415Z,42.80
2023-02-08T12:46:13.304Z,42.89
2023-02-08T12:48:35.983Z,42.46
2023-02-08T12:51:06.660Z,41.83
2023-02-08T12:53:25.658Z,42.03
2023-02-08T12:55:38.281Z,41.94
2023-02-08T12:57:44.099Z,42.34
2023-02-08T12:59:51.479Z,42.16
2023-02-08T13:02:00.286Z,41.75
2023-02-08T13:04:21.499Z,41.33
2023-02-08T13:06:38.057Z,40.85
2023-02-08T13:08:59.847Z,41.14
2023-02-08T13:11:19.469Z,40.47
2023-02-08T13:13:26.523Z,40.09
2023-02-08T13:15:42.145Z,39.49
2023-02-08T13:17:51.455Z,40.13
2023-02-08T13:20:05.162Z,40.01
2023-02-08T13:22:07.559Z,39.95
2023-02-08T13:24:34.457Z,39.12
2023-02-08T13:26:39.971Z,39.44
2023-02-08T13:28:56.401Z,39.17
2023-02-08T13:31:13.850Z,38.61
2023-02-08T13:33:21.671Z,39.10
2023-02-08T13:35:30.624Z,39.18
2023-02-08T13:37:34.749Z,39.30
2023-02-08T13:39:44.142Z,38.01
2023-02-08T13:41:54.120Z,38.47
2023-02-08T13:44:04.536Z,38.44
2023-02-08T13:46:07.184Z,38.82
2023-02-08T13:48:12.633Z,38.88
2023-02-08T13:50:49.669Z,38.59
2023-02-08T13:52:52.276Z,39.45
2023-02-08T13:55:43.250Z,38.62
2023-02-08T13:57:56.154Z,38.77
2023-02-08T14:00:22.772Z,38.73
2023-02-08T14:02:26.981Z,39.13
2023-02-08T14:04:34.658Z,39.34
2023-02-08T14:06:49.995Z,38.00
2023-02-08T14:09:03.846Z,38.61
2023-02-08T14:11:25.444Z,38.93
2023-02-08T14:13:36.621Z,37.65
2023-02-08T14:15:41.179Z,38.87
2023-02-08T14:17:49.640Z,38.50
2023-02-08T14:20:06.004Z,37.96
2023-02-08T14:22:13.730Z,37.79
2023-02-08T14:24:28.660Z,37.86
2023-02-08T14:26:31.290Z,37.97
2023-02-08T14:28:38.428Z,38.09
2023-02-08T14:30:41.346Z,37.93
2023-02-08T14:32:46.467Z,37.84
2023-02-08T14:34:51.813Z,38.25
2023-02-08T14:37:06.782Z,37.42
2023-02-08T14:39:27.740Z,37.76
2023-02-08T14:42:00.368Z,36.78
2023-02-08T14:44:50.680Z,37.21
2023-02-08T14:46:52.455Z,37.75
2023-02-08T14:48:54.941Z,37.46
2023-02-08T14:51:08.895Z,37.29
2023-02-08T14:53:13.708Z,37.59
2023-02-08T14:55:21.603Z,37.12
2023-02-08T14:57:29.667Z,37.67
2023-02-08T14:59:34.399Z,37.51
2023-02-08T15:01:44.528Z,37.23
2023-02-08T15:03:54.786Z,37.72
2023-02-08T15:06:22.486Z,37.19
2023-02-08T15:08:24.661Z,37.62
2023-02-08T15:10:28.665Z,37.75
2023-02-08T15:12:34.296Z,37.28
2023-02-08T15:14:39.701Z,37.70
2023-02-08T15:16:44.209Z,37.29
2023-02-08T15:18:49.720Z,37.54
2023-02-08T15:21:08.292Z,36.90
2023-02-08T15:23:24.967Z,37.51
2023-02-08T15:25:35.104Z,37.43
2023-02-08T15:27:36.939Z,37.56
2023-02-08T15:29:44.637Z,37.75
2023-02-08T15:31:47.265Z,37.77
2023-02-08T15:33:49.744Z,38.08
2023-02-08T15:36:06.570Z,37.63
2023-02-08T15:38:19.251Z,37.55
2023-02-08T15:40:30.675Z,37.88
2023-02-08T15:42:43.899Z,37.43
2023-02-08T15:44:46.740Z,37.82
2023-02-08T15:48:53.936Z,38.10
2023-02-08T15:50:57.702Z,38.11
2023-02-08T15:53:06.293Z,37.99
2023-02-08T15:55:14.210Z,37.89
2023-02-08T15:57:46.891Z,37.86
2023-02-08T15:59:49.302Z,38.06
2023-02-08T16:01:52.270Z,37.85
2023-02-08T16:03:59.550Z,37.71
2023-02-08T16:06:07.156Z,37.97
2023-02-08T16:08:31.815Z,38.06
2023-02-08T16:10:38.866Z,37.70
2023-02-08T16:12:44.737Z,37.80
2023-02-08T16:14:52.407Z,38.25
2023-02-08T16:17:00.461Z,38.01
2023-02-08T16:19:06.809Z,38.15
2023-02-08T16:21:33.133Z,37.93
2023-02-08T16:23:39.904Z,38.08
2023-02-08T16:25:41.506Z,38.50
2023-02-08T16:27:48.165Z,38.44
2023-02-08T16:29:50.157Z,38.26
2023-02-08T16:32:12.616Z,38.22
2023-02-08T16:34:19.671Z,38.46
2023-02-08T16:36:31.130Z,38.46
2023-02-08T16:38:34.281Z,38.83
2023-02-08T16:41:04.295Z,38.66
2023-02-08T16:43:34.391Z,38.59
2023-02-08T16:45:37.994Z,38.66
2023-02-08T16:47:58.403Z,38.65
2023-02-08T16:50:01.838Z,38.45
2023-02-08T16:52:08.676Z,38.82
2023-02-08T16:54:15.284Z,38.90
2023-02-08T16:56:17.031Z,39.01
2023-02-08T16:58:18.731Z,38.95
2023-02-08T17:00:30.223Z,38.62
2023-02-08T17:02:31.903Z,39.06
2023-02-08T17:04:35.226Z,39.08
2023-02-08T17:06:38.249Z,38.97
2023-02-08T17:08:39.788Z,39.20
2023-02-08T17:10:42.949Z,39.09
2023-02-08T17:12:46.981Z,39.29
2023-02-08T17:14:49.154Z,39.12
2023-02-08T17:16:56.052Z,39.25
2023-02-08T17:18:59.699Z,39.17
2023-02-08T17:21:02.003Z,39.34
2023-02-08T17:23:07.479Z,39.12
2023-02-08T17:25:10.573Z,39.55
2023-02-08T17:27:14.930Z,39.31
2023-02-08T17:29:19.127Z,39.68
2023-02-08T17:31:21.062Z,39.36
2023-02-08T17:33:23.024Z,39.44
2023-02-08T17:35:28.408Z,39.52
2023-02-08T17:37:31.799Z,39.27
2023-02-08T17:39:33.759Z,39.79
2023-02-08T17:41:35.759Z,39.30
2023-02-08T17:43:37.372Z,39.62
2023-02-08T17:45:41.410Z,39.76
2023-02-08T17:47:43.476Z,39.57
2023-02-08T17:49:45.089Z,39.43
2023-02-08T17:51:48.817Z,40.09
2023-02-08T17:53:53.357Z,39.50
2023-02-08T17:55:55.026Z,39.60
2023-02-08T17:57:58.181Z,39.39
2023-02-08T17:59:59.878Z,40.02
2023-02-08T18:02:01.614Z,39.84
2023-02-08T18:04:03.427Z,39.81
2023-02-08T18:06:08.285Z,39.73
2023-02-08T18:08:10.150Z,40.23
2023-02-08T18:10:16.186Z,40.46
2023-02-08T18:12:18.067Z,39.92
2023-02-08T18:14:20.425Z,40.22
2023-02-08T18:16:28.898Z,40.14
2023-02-08T18:18:30.696Z,39.85
2023-02-08T18:20:52.738Z,40.29
2023-02-08T18:22:54.529Z,40.20
2023-02-08T18:24:56.313Z,40.59
2023-02-08T18:26:59.907Z,40.34
2023-02-08T18:29:02.358Z,40.34
2023-02-08T18:31:14.422Z,40.40
2023-02-08T18:33:16.235Z,40.87
2023-02-08T18:35:17.936Z,40.81
2023-02-08T18:37:19.737Z,40.52
2023-02-08T18:39:23.222Z,40.77
2023-02-08T18:41:30.010Z,40.86
2023-02-08T18:43:31.748Z,40.51
2023-02-08T18:45:33.895Z,41.01
2023-02-08T18:47:37.339Z,40.47
2023-02-08T18:49:41.019Z,40.76
2023-02-08T18:51:50.099Z,40.12
2023-02-08T18:53:54.450Z,41.08
2023-02-08T18:55:57.835Z,41.32
2023-02-08T18:57:59.433Z,40.38
2023-02-08T19:00:01.230Z,41.16
2023-02-08T19:02:07.450Z,40.77
2023-02-08T19:04:09.686Z,41.20
2023-02-08T19:06:18.260Z,40.69
2023-02-08T19:08:20.552Z,40.82
2023-02-08T19:10:22.325Z,40.83
2023-02-08T19:12:23.872Z,41.29
2023-02-08T19:14:25.707Z,41.07
2023-02-08T19:16:29.201Z,41.17
2023-02-08T19:18:44.812Z,41.86
2023-02-08T19:20:46.467Z,41.19
2023-02-08T19:22:48.084Z,41.10
2023-02-08T19:24:52.143Z,40.72
2023-02-08T19:26:55.089Z,41.25
2023-02-08T19:29:00.308Z,41.97
2023-02-08T19:31:09.850Z,41.17
2023-02-08T19:33:11.771Z,41.76
2023-02-08T19:35:14.376Z,41.09
2023-02-08T19:37:16.066Z,41.24
2023-02-08T19:39:23.186Z,41.25
2023-02-08T19:41:28.439Z,41.61
2023-02-08T19:43:31.040Z,41.91
2023-02-08T19:45:35.225Z,41.49
2023-02-08T19:47:50.990Z,41.85
2023-02-08T19:49:53.534Z,41.82
2023-02-08T19:51:55.159Z,41.32
2023-02-08T19:54:01.628Z,41.84
2023-02-08T19:56:17.568Z,42.04
2023-02-08T19:58:19.199Z,42.12
2023-02-08T20:00:23.838Z,42.36
2023-02-08T20:02:27.439Z,41.99
2023-02-08T20:04:30.177Z,42.19
2023-02-08T20:06:39.481Z,41.69
2023-02-08T20:08:45.747Z,41.98
2023-02-08T20:10:48.374Z,41.39
2023-02-08T20:12:53.585Z,41.99
2023-02-08T20:15:03.597Z,42.09
2023-02-08T20:17:07.211Z,41.59
2023-02-08T20:19:11.289Z,41.71
2023-02-08T20:21:16.247Z,41.70
2023-02-08T20:23:22.722Z,41.59
2023-02-08T20:25:26.960Z,42.02
2023-02-08T20:27:32.238Z,41.67
2023-02-08T20:29:33.929Z,41.70
2023-02-08T20:31:41.052Z,41.76
2023-02-08T20:33:51.933Z,41.75
2023-02-08T20:35:55.741Z,42.00
2023-02-08T20:38:00.067Z,42.41
2023-02-08T20:40:02.209Z,41.59
2023-02-08T20:42:04.411Z,41.84
2023-02-08T20:44:05.962Z,41.98
2023-02-08T20:46:09.678Z,42.38
2023-02-08T20:48:11.376Z,42.15
2023-02-08T20:50:18.599Z,42.14
2023-02-08T20:52:24.252Z,41.85
2023-02-08T20:54:26.099Z,42.35
2023-02-08T20:56:32.066Z,42.20
2023-02-08T20:58:34.072Z,42.51
2023-02-08T21:00:43.113Z,42.18
2023-02-08T21:02:46.171Z,42.47
2023-02-08T21:04:48.374Z,42.30
2023-02-08T21:06:54.031Z,42.15
2023-02-08T21:08:57.229Z,42.28
2023-02-08T21:11:01.929Z,42.33
2023-02-08T21:13:03.776Z,42.35
2023-02-08T21:15:06.164Z,42.37
2023-02-08T21:17:08.018Z,42.49
2023-02-08T21:19:15.777Z,42.49
2023-02-08T21:21:18.104Z,42.59
2023-02-08T21:23:19.704Z,42.30
2023-02-08T21:25:21.377Z,42.58
2023-02-08T21:27:24.246Z,42.33
2023-02-08T21:29:26.474Z,42.21
2023-02-08T21:31:28.340Z,42.33
2023-02-08T21:33:30.681Z,42.37
2023-02-08T21:35:35.546Z,42.63
2023-02-08T21:37:37.256Z,42.27
2023-02-08T21:39:38.915Z,42.43
2023-02-08T21:41:41.555Z,42.63
2023-02-08T21:43:43.122Z,42.22
2023-02-08T21:45:44.932Z,42.40
2023-02-08T21:47:46.536Z,42.35
2023-02-08T21:50:06.863Z,42.64
2023-02-08T21:52:28.832Z,42.42
2023-02-08T21:54:41.930Z,42.22
2023-02-08T21:56:43.705Z,42.30
2023-02-08T21:58:45.403Z,42.42
2023-02-08T22:00:47.172Z,42.14
2023-02-08T22:02:48.759Z,42.42
2023-02-08T22:04:53.545Z,42.53
2023-02-08T22:06:58.305Z,42.42
2023-02-08T22:08:59.850Z,42.29
2023-02-08T22:11:04.823Z,42.80
2023-02-08T22:13:06.560Z,42.82
2023-02-08T22:15:10.279Z,42.66
2023-02-08T22:17:20.972Z,42.74
2023-02-08T22:19:22.522Z,42.68
2023-02-08T22:21:24.286Z,42.78
2023-02-08T22:23:25.976Z,42.82
2023-02-08T22:25:28.148Z,42.85
2023-02-08T22:27:30.007Z,42.57
2023-02-08T22:29:32.141Z,42.65
2023-02-08T22:31:33.884Z,42.51
2023-02-08T22:33:36.698Z,42.93
2023-02-08T22:35:38.929Z,42.73
2023-02-08T22:37:40.535Z,42.81
2023-02-08T22:39:42.717Z,42.98
2023-02-08T22:41:46.946Z,42.52
2023-02-08T22:43:49.429Z,42.63
2023-02-08T22:46:05.909Z,42.49
2023-02-08T22:48:07.619Z,42.76
2023-02-08T22:50:15.432Z,42.93
2023-02-08T22:52:17.660Z,43.13
2023-02-08T22:54:19.505Z,42.98
2023-02-08T22:56:21.206Z,42.80
2023-02-08T22:58:24.631Z,42.74
2023-02-08T23:00:26.278Z,43.02
2023-02-08T23:02:28.329Z,43.16
2023-02-08T23:04:30.389Z,42.79
2023-02-08T23:06:33.734Z,42.84
2023-02-08T23:08:37.269Z,43.14
2023-02-08T23:10:39.072Z,43.29
2023-02-08T23:12:40.754Z,42.95
2023-02-08T23:14:42.395Z,42.73
2023-02-08T23:16:44.390Z,43.35
2023-02-08T23:18:46.273Z,42.80
2023-02-08T23:20:49.466Z,43.17
2023-02-08T23:22:51.492Z,43.23
2023-02-08T23:24:54.073Z,43.23
2023-02-08T23:26:55.714Z,43.53
2023-02-08T23:28:57.272Z,43.10
2023-02-08T23:30:59.153Z,43.18
2023-02-08T23:33:00.927Z,43.62
2023-02-08T23:35:02.483Z,43.58
2023-02-08T23:37:04.157Z,42.98
2023-02-08T23:39:05.814Z,43.24
2023-02-08T23:41:10.363Z,43.72
2023-02-08T23:43:11.846Z,43.08
2023-02-08T23:45:13.966Z,43.50
2023-02-08T23:47:15.527Z,43.29
2023-02-08T23:49:17.146Z,43.36
2023-02-08T23:51:24.285Z,43.11
2023-02-08T23:53:27.021Z,43.92
2023-02-08T23:55:35.809Z,43.46
2023-02-08T23:57:38.061Z,43.28
2023-02-08T23:59:40.228Z,43.21
